Terminal Aerodrome Forecast
Issued by NWS Shreveport, LA

Home | Current Version | Previous Version | Text Only | Print | Product List | Glossary On
Versions: 1 2 3 4 5 6 7 8 9 10 11 12 13 14 15 16 17 18 19 20 21
000
FTUS44 KSHV 021200 AAA
TAFELD
TAF AMD
KELD 021255Z 0213/0312 16005KT P6SM OVC015
      TEMPO 0213/0215 BKN025
     FM021500 19009KT P6SM BKN030
     FM021700 19009KT P6SM VCTS SCT045CB
     FM030000 17004KT P6SM FEW060 SCT250
      TEMPO 0310/0312 5SM BR BKN005=

USA.gov is the U.S. government's official web portal to all federal, state and local government web resources and services.